Terminal Aerodrome Forecast
Issued by NWS

Home | Current Version | Previous Version | Text Only | Print | Product List | Glossary On
Versions: 1 2 3 4 5 6 7 8 9 10 11 12 13 14
000
FTUS45 KPSR 261211 AAA
TAFBLH
TAF AMD
KBLH 261211Z 2612/2712 35011KT P6SM FEW250
     FM261700 07012G20KT P6SM BKN250
     FM270100 08008KT P6SM FEW110 BKN250
     FM270800 01005KT P6SM SCT110 BKN250=

USA.gov is the U.S. government's official web portal to all federal, state and local government web resources and services.